sensor_id;sensor_type;location;lat;lon;timestamp;P1;durP1;ratioP1;P2;durP2;ratioP2
78555;SDS011;67851;51.354;7.744;2023-10-31T00:01:20;3.60;;;1.80;;
78555;SDS011;67851;51.354;7.744;2023-10-31T00:03:47;2.53;;;1.73;;
78555;SDS011;67851;51.354;7.744;2023-10-31T00:06:14;4.65;;;2.20;;
78555;SDS011;67851;51.354;7.744;2023-10-31T00:08:41;2.50;;;1.80;;
78555;SDS011;67851;51.354;7.744;2023-10-31T00:11:08;2.83;;;2.50;;
78555;SDS011;67851;51.354;7.744;2023-10-31T00:13:34;2.50;;;2.30;;
78555;SDS011;67851;51.354;7.744;2023-10-31T00:16:02;4.40;;;2.85;;
78555;SDS011;67851;51.354;7.744;2023-10-31T00:18:29;3.35;;;2.88;;
78555;SDS011;67851;51.354;7.744;2023-10-31T00:20:56;3.50;;;3.20;;
78555;SDS011;67851;51.354;7.744;2023-10-31T00:23:23;4.10;;;3.75;;
78555;SDS011;67851;51.354;7.744;2023-10-31T00:25:49;5.03;;;3.50;;
78555;SDS011;67851;51.354;7.744;2023-10-31T00:28:16;3.88;;;3.17;;
78555;SDS011;67851;51.354;7.744;2023-10-31T00:30:43;5.00;;;4.25;;
78555;SDS011;67851;51.354;7.744;2023-10-31T00:33:10;4.45;;;3.90;;
78555;SDS011;67851;51.354;7.744;2023-10-31T00:35:37;4.05;;;3.53;;
78555;SDS011;67851;51.354;7.744;2023-10-31T00:38:03;3.28;;;2.83;;
78555;SDS011;67851;51.354;7.744;2023-10-31T00:40:30;1.63;;;1.52;;
78555;SDS011;67851;51.354;7.744;2023-10-31T00:42:57;2.65;;;2.35;;
78555;SDS011;67851;51.354;7.744;2023-10-31T00:45:26;2.78;;;1.90;;
78555;SDS011;67851;51.354;7.744;2023-10-31T00:47:52;8.15;;;1.95;;
78555;SDS011;67851;51.354;7.744;2023-10-31T00:50:19;2.20;;;2.00;;
78555;SDS011;67851;51.354;7.744;2023-10-31T00:52:46;1.65;;;1.55;;
78555;SDS011;67851;51.354;7.744;2023-10-31T00:55:12;2.15;;;1.77;;
78555;SDS011;67851;51.354;7.744;2023-10-31T00:57:39;3.42;;;1.27;;
78555;SDS011;67851;51.354;7.744;2023-10-31T01:00:06;1.63;;;1.50;;
78555;SDS011;67851;51.354;7.744;2023-10-31T01:02:34;2.65;;;1.08;;
78555;SDS011;67851;51.354;7.744;2023-10-31T01:05:01;1.98;;;1.50;;
78555;SDS011;67851;51.354;7.744;2023-10-31T01:07:29;3.05;;;1.10;;
78555;SDS011;67851;51.354;7.744;2023-10-31T01:09:55;1.77;;;1.50;;
78555;SDS011;67851;51.354;7.744;2023-10-31T01:12:22;2.95;;;1.45;;
78555;SDS011;67851;51.354;7.744;2023-10-31T01:14:49;2.35;;;1.48;;
78555;SDS011;67851;51.354;7.744;2023-10-31T01:17:15;2.40;;;1.10;;
78555;SDS011;67851;51.354;7.744;2023-10-31T01:19:42;2.33;;;1.50;;
78555;SDS011;67851;51.354;7.744;2023-10-31T01:22:09;1.83;;;1.60;;
78555;SDS011;67851;51.354;7.744;2023-10-31T01:24:35;1.90;;;1.35;;
78555;SDS011;67851;51.354;7.744;2023-10-31T01:27:02;2.60;;;1.17;;
78555;SDS011;67851;51.354;7.744;2023-10-31T01:29:29;3.08;;;1.52;;
78555;SDS011;67851;51.354;7.744;2023-10-31T01:31:55;4.53;;;1.52;;
78555;SDS011;67851;51.354;7.744;2023-10-31T01:34:28;2.80;;;1.70;;
78555;SDS011;67851;51.354;7.744;2023-10-31T01:36:55;2.20;;;2.00;;
78555;SDS011;67851;51.354;7.744;2023-10-31T01:39:22;3.45;;;2.78;;
78555;SDS011;67851;51.354;7.744;2023-10-31T01:41:49;2.63;;;2.28;;
78555;SDS011;67851;51.354;7.744;2023-10-31T01:44:15;3.15;;;2.45;;
78555;SDS011;67851;51.354;7.744;2023-10-31T01:46:42;3.25;;;2.90;;
78555;SDS011;67851;51.354;7.744;2023-10-31T01:49:09;3.60;;;2.92;;
78555;SDS011;67851;51.354;7.744;2023-10-31T01:51:36;3.42;;;3.13;;
78555;SDS011;67851;51.354;7.744;2023-10-31T01:54:02;5.68;;;2.97;;
78555;SDS011;67851;51.354;7.744;2023-10-31T01:56:30;4.32;;;2.67;;
78555;SDS011;67851;51.354;7.744;2023-10-31T01:58:57;4.47;;;2.70;;
78555;SDS011;67851;51.354;7.744;2023-10-31T02:01:24;5.97;;;3.58;;
78555;SDS011;67851;51.354;7.744;2023-10-31T02:03:51;4.30;;;3.28;;
78555;SDS011;67851;51.354;7.744;2023-10-31T02:06:17;6.03;;;3.25;;
78555;SDS011;67851;51.354;7.744;2023-10-31T02:08:46;6.25;;;4.65;;
78555;SDS011;67851;51.354;7.744;2023-10-31T02:11:14;4.63;;;3.80;;
78555;SDS011;67851;51.354;7.744;2023-10-31T02:13:41;5.07;;;4.55;;
78555;SDS011;67851;51.354;7.744;2023-10-31T02:16:08;6.30;;;4.55;;
78555;SDS011;67851;51.354;7.744;2023-10-31T02:18:35;5.60;;;4.22;;
78555;SDS011;67851;51.354;7.744;2023-10-31T02:21:02;6.05;;;3.88;;
78555;SDS011;67851;51.354;7.744;2023-10-31T02:23:29;5.00;;;3.05;;
78555;SDS011;67851;51.354;7.744;2023-10-31T02:25:56;5.43;;;3.10;;
78555;SDS011;67851;51.354;7.744;2023-10-31T02:28:23;4.18;;;2.83;;
78555;SDS011;67851;51.354;7.744;2023-10-31T02:30:54;4.75;;;2.60;;
78555;SDS011;67851;51.354;7.744;2023-10-31T02:33:25;3.83;;;2.20;;
78555;SDS011;67851;51.354;7.744;2023-10-31T02:35:52;2.80;;;2.00;;
78555;SDS011;67851;51.354;7.744;2023-10-31T02:38:19;2.67;;;1.83;;
78555;SDS011;67851;51.354;7.744;2023-10-31T02:40:46;5.57;;;2.30;;
78555;SDS011;67851;51.354;7.744;2023-10-31T02:43:13;3.92;;;2.20;;
78555;SDS011;67851;51.354;7.744;2023-10-31T02:45:39;4.15;;;1.90;;
78555;SDS011;67851;51.354;7.744;2023-10-31T02:48:06;4.85;;;2.38;;
78555;SDS011;67851;51.354;7.744;2023-10-31T02:50:33;3.25;;;2.00;;
78555;SDS011;67851;51.354;7.744;2023-10-31T02:53:02;3.70;;;1.70;;
78555;SDS011;67851;51.354;7.744;2023-10-31T02:55:28;5.03;;;2.40;;
78555;SDS011;67851;51.354;7.744;2023-10-31T02:57:56;7.22;;;2.08;;
78555;SDS011;67851;51.354;7.744;2023-10-31T03:00:23;4.13;;;2.38;;
78555;SDS011;67851;51.354;7.744;2023-10-31T03:02:53;4.47;;;3.10;;
78555;SDS011;67851;51.354;7.744;2023-10-31T03:05:19;8.40;;;4.20;;
78555;SDS011;67851;51.354;7.744;2023-10-31T03:07:46;9.18;;;4.30;;
78555;SDS011;67851;51.354;7.744;2023-10-31T03:10:13;10.70;;;5.07;;
78555;SDS011;67851;51.354;7.744;2023-10-31T03:12:40;8.35;;;5.30;;
78555;SDS011;67851;51.354;7.744;2023-10-31T03:15:07;9.45;;;5.30;;
78555;SDS011;67851;51.354;7.744;2023-10-31T03:17:34;14.70;;;8.15;;
78555;SDS011;67851;51.354;7.744;2023-10-31T03:20:01;13.88;;;8.45;;
78555;SDS011;67851;51.354;7.744;2023-10-31T03:22:27;14.30;;;9.40;;
78555;SDS011;67851;51.354;7.744;2023-10-31T03:24:54;17.75;;;9.45;;
78555;SDS011;67851;51.354;7.744;2023-10-31T03:27:21;14.88;;;8.70;;
78555;SDS011;67851;51.354;7.744;2023-10-31T03:29:50;20.58;;;10.38;;
78555;SDS011;67851;51.354;7.744;2023-10-31T03:32:16;12.73;;;8.05;;
78555;SDS011;67851;51.354;7.744;2023-10-31T03:34:43;15.88;;;8.27;;
78555;SDS011;67851;51.354;7.744;2023-10-31T03:37:10;17.83;;;8.63;;
78555;SDS011;67851;51.354;7.744;2023-10-31T03:39:37;12.70;;;7.80;;
78555;SDS011;67851;51.354;7.744;2023-10-31T03:42:03;14.43;;;8.88;;
78555;SDS011;67851;51.354;7.744;2023-10-31T03:44:31;18.88;;;8.45;;
78555;SDS011;67851;51.354;7.744;2023-10-31T03:46:58;17.15;;;7.43;;
78555;SDS011;67851;51.354;7.744;2023-10-31T03:49:24;11.30;;;7.28;;
78555;SDS011;67851;51.354;7.744;2023-10-31T03:51:52;10.93;;;6.70;;
78555;SDS011;67851;51.354;7.744;2023-10-31T03:54:21;12.45;;;6.22;;
78555;SDS011;67851;51.354;7.744;2023-10-31T03:56:48;8.57;;;5.22;;
78555;SDS011;67851;51.354;7.744;2023-10-31T03:59:16;7.13;;;4.60;;
78555;SDS011;67851;51.354;7.744;2023-10-31T04:01:42;8.30;;;4.18;;
78555;SDS011;67851;51.354;7.744;2023-10-31T04:04:09;5.22;;;3.53;;
78555;SDS011;67851;51.354;7.744;2023-10-31T04:06:36;5.13;;;3.30;;
78555;SDS011;67851;51.354;7.744;2023-10-31T04:09:06;5.72;;;3.40;;
78555;SDS011;67851;51.354;7.744;2023-10-31T04:11:33;10.43;;;5.55;;
78555;SDS011;67851;51.354;7.744;2023-10-31T04:13:59;6.43;;;3.90;;
78555;SDS011;67851;51.354;7.744;2023-10-31T04:16:27;7.72;;;4.65;;
78555;SDS011;67851;51.354;7.744;2023-10-31T04:18:53;7.82;;;4.38;;
78555;SDS011;67851;51.354;7.744;2023-10-31T04:21:20;10.65;;;4.97;;
78555;SDS011;67851;51.354;7.744;2023-10-31T04:23:48;7.45;;;4.90;;
78555;SDS011;67851;51.354;7.744;2023-10-31T04:26:15;9.02;;;5.22;;
78555;SDS011;67851;51.354;7.744;2023-10-31T04:28:44;10.45;;;5.50;;
78555;SDS011;67851;51.354;7.744;2023-10-31T04:31:11;8.32;;;5.28;;
78555;SDS011;67851;51.354;7.744;2023-10-31T04:33:38;11.85;;;5.07;;
78555;SDS011;67851;51.354;7.744;2023-10-31T04:36:05;12.48;;;4.63;;
78555;SDS011;67851;51.354;7.744;2023-10-31T04:38:36;7.55;;;5.50;;
78555;SDS011;67851;51.354;7.744;2023-10-31T04:41:04;10.70;;;6.38;;
78555;SDS011;67851;51.354;7.744;2023-10-31T04:43:31;7.57;;;5.57;;
78555;SDS011;67851;51.354;7.744;2023-10-31T04:45:58;10.25;;;5.55;;
78555;SDS011;67851;51.354;7.744;2023-10-31T04:48:24;8.55;;;5.93;;
78555;SDS011;67851;51.354;7.744;2023-10-31T04:50:51;10.80;;;7.05;;
78555;SDS011;67851;51.354;7.744;2023-10-31T04:53:18;8.27;;;6.45;;
78555;SDS011;67851;51.354;7.744;2023-10-31T04:55:45;11.07;;;6.80;;
78555;SDS011;67851;51.354;7.744;2023-10-31T04:58:12;8.07;;;6.90;;
78555;SDS011;67851;51.354;7.744;2023-10-31T05:00:38;13.65;;;8.07;;
78555;SDS011;67851;51.354;7.744;2023-10-31T05:03:06;9.35;;;6.32;;
78555;SDS011;67851;51.354;7.744;2023-10-31T05:05:33;13.88;;;8.20;;
78555;SDS011;67851;51.354;7.744;2023-10-31T05:08:00;7.70;;;6.38;;
78555;SDS011;67851;51.354;7.744;2023-10-31T05:10:26;8.60;;;6.82;;
78555;SDS011;67851;51.354;7.744;2023-10-31T05:12:53;8.15;;;6.32;;
78555;SDS011;67851;51.354;7.744;2023-10-31T05:15:20;8.18;;;6.15;;
78555;SDS011;67851;51.354;7.744;2023-10-31T05:17:47;12.82;;;7.15;;
78555;SDS011;67851;51.354;7.744;2023-10-31T05:20:14;9.05;;;7.25;;
78555;SDS011;67851;51.354;7.744;2023-10-31T05:22:41;11.93;;;8.15;;
78555;SDS011;67851;51.354;7.744;2023-10-31T05:25:09;11.10;;;7.32;;
78555;SDS011;67851;51.354;7.744;2023-10-31T05:27:36;12.95;;;8.10;;
78555;SDS011;67851;51.354;7.744;2023-10-31T05:30:03;9.93;;;7.40;;
78555;SDS011;67851;51.354;7.744;2023-10-31T05:32:30;12.00;;;8.18;;
78555;SDS011;67851;51.354;7.744;2023-10-31T05:34:57;14.93;;;6.22;;
78555;SDS011;67851;51.354;7.744;2023-10-31T05:37:26;9.05;;;6.78;;
78555;SDS011;67851;51.354;7.744;2023-10-31T05:39:52;8.60;;;6.45;;
78555;SDS011;67851;51.354;7.744;2023-10-31T05:42:19;8.15;;;6.10;;
78555;SDS011;67851;51.354;7.744;2023-10-31T05:44:47;7.95;;;5.90;;
78555;SDS011;67851;51.354;7.744;2023-10-31T05:47:13;8.38;;;6.40;;
78555;SDS011;67851;51.354;7.744;2023-10-31T05:49:42;8.75;;;6.80;;
78555;SDS011;67851;51.354;7.744;2023-10-31T05:52:10;9.45;;;7.40;;
78555;SDS011;67851;51.354;7.744;2023-10-31T05:54:38;8.85;;;7.43;;
78555;SDS011;67851;51.354;7.744;2023-10-31T05:57:04;9.75;;;6.28;;
78555;SDS011;67851;51.354;7.744;2023-10-31T05:59:32;9.25;;;7.03;;
78555;SDS011;67851;51.354;7.744;2023-10-31T06:01:59;8.15;;;6.50;;
78555;SDS011;67851;51.354;7.744;2023-10-31T06:04:26;8.68;;;6.05;;
78555;SDS011;67851;51.354;7.744;2023-10-31T06:06:53;9.32;;;5.80;;
78555;SDS011;67851;51.354;7.744;2023-10-31T06:09:20;11.98;;;5.25;;
78555;SDS011;67851;51.354;7.744;2023-10-31T06:11:47;9.35;;;5.47;;
78555;SDS011;67851;51.354;7.744;2023-10-31T06:14:14;8.95;;;5.57;;
78555;SDS011;67851;51.354;7.744;2023-10-31T06:16:42;8.20;;;5.75;;
78555;SDS011;67851;51.354;7.744;2023-10-31T06:19:10;7.50;;;6.35;;
78555;SDS011;67851;51.354;7.744;2023-10-31T06:21:36;10.25;;;6.65;;
78555;SDS011;67851;51.354;7.744;2023-10-31T06:24:04;6.97;;;5.57;;
78555;SDS011;67851;51.354;7.744;2023-10-31T06:26:31;9.32;;;6.63;;
78555;SDS011;67851;51.354;7.744;2023-10-31T06:28:57;11.02;;;6.60;;
78555;SDS011;67851;51.354;7.744;2023-10-31T06:31:44;10.63;;;5.22;;
78555;SDS011;67851;51.354;7.744;2023-10-31T06:34:11;6.75;;;4.93;;
78555;SDS011;67851;51.354;7.744;2023-10-31T06:36:38;6.03;;;5.25;;
78555;SDS011;67851;51.354;7.744;2023-10-31T06:39:05;7.40;;;5.18;;
78555;SDS011;67851;51.354;7.744;2023-10-31T06:41:32;8.85;;;5.45;;
78555;SDS011;67851;51.354;7.744;2023-10-31T06:43:59;7.85;;;5.65;;
78555;SDS011;67851;51.354;7.744;2023-10-31T06:46:26;8.18;;;6.28;;
78555;SDS011;67851;51.354;7.744;2023-10-31T06:48:54;10.27;;;6.35;;
78555;SDS011;67851;51.354;7.744;2023-10-31T06:51:21;9.40;;;6.45;;
78555;SDS011;67851;51.354;7.744;2023-10-31T06:53:48;10.70;;;7.93;;
78555;SDS011;67851;51.354;7.744;2023-10-31T06:56:15;14.25;;;8.25;;
78555;SDS011;67851;51.354;7.744;2023-10-31T06:58:42;18.10;;;9.95;;
78555;SDS011;67851;51.354;7.744;2023-10-31T07:01:09;15.80;;;9.82;;
78555;SDS011;67851;51.354;7.744;2023-10-31T07:03:37;14.50;;;10.50;;
78555;SDS011;67851;51.354;7.744;2023-10-31T07:06:04;12.65;;;9.60;;
78555;SDS011;67851;51.354;7.744;2023-10-31T07:08:32;15.27;;;9.43;;
78555;SDS011;67851;51.354;7.744;2023-10-31T07:10:58;19.15;;;9.50;;
78555;SDS011;67851;51.354;7.744;2023-10-31T07:13:27;14.73;;;9.25;;
78555;SDS011;67851;51.354;7.744;2023-10-31T07:15:54;12.77;;;8.45;;
78555;SDS011;67851;51.354;7.744;2023-10-31T07:18:21;12.13;;;8.70;;
78555;SDS011;67851;51.354;7.744;2023-10-31T07:20:47;13.70;;;8.23;;
78555;SDS011;67851;51.354;7.744;2023-10-31T07:23:14;12.77;;;8.05;;
78555;SDS011;67851;51.354;7.744;2023-10-31T07:25:41;13.43;;;7.13;;
78555;SDS011;67851;51.354;7.744;2023-10-31T07:28:07;15.32;;;7.32;;
78555;SDS011;67851;51.354;7.744;2023-10-31T07:30:34;11.57;;;8.23;;
78555;SDS011;67851;51.354;7.744;2023-10-31T07:33:01;9.57;;;7.05;;
78555;SDS011;67851;51.354;7.744;2023-10-31T07:35:28;8.48;;;6.25;;
78555;SDS011;67851;51.354;7.744;2023-10-31T07:37:54;8.27;;;6.82;;
78555;SDS011;67851;51.354;7.744;2023-10-31T07:40:21;10.57;;;6.10;;
78555;SDS011;67851;51.354;7.744;2023-10-31T07:42:47;8.80;;;6.53;;
78555;SDS011;67851;51.354;7.744;2023-10-31T07:45:14;8.38;;;6.20;;
78555;SDS011;67851;51.354;7.744;2023-10-31T07:47:41;10.50;;;6.82;;
78555;SDS011;67851;51.354;7.744;2023-10-31T07:50:08;10.98;;;6.75;;
78555;SDS011;67851;51.354;7.744;2023-10-31T07:52:37;12.73;;;6.32;;
78555;SDS011;67851;51.354;7.744;2023-10-31T07:55:04;7.05;;;5.45;;
78555;SDS011;67851;51.354;7.744;2023-10-31T07:57:32;8.98;;;4.80;;
78555;SDS011;67851;51.354;7.744;2023-10-31T08:00:00;8.32;;;5.07;;
78555;SDS011;67851;51.354;7.744;2023-10-31T08:02:26;6.88;;;5.00;;
78555;SDS011;67851;51.354;7.744;2023-10-31T08:04:54;7.38;;;4.82;;
78555;SDS011;67851;51.354;7.744;2023-10-31T08:07:20;7.38;;;5.63;;
78555;SDS011;67851;51.354;7.744;2023-10-31T08:09:48;10.07;;;5.20;;
78555;SDS011;67851;51.354;7.744;2023-10-31T08:12:14;7.65;;;5.20;;
78555;SDS011;67851;51.354;7.744;2023-10-31T08:14:41;8.38;;;4.88;;
78555;SDS011;67851;51.354;7.744;2023-10-31T08:17:07;7.65;;;4.85;;
78555;SDS011;67851;51.354;7.744;2023-10-31T08:19:35;9.25;;;5.07;;
78555;SDS011;67851;51.354;7.744;2023-10-31T08:22:02;6.05;;;4.40;;
78555;SDS011;67851;51.354;7.744;2023-10-31T08:24:29;9.45;;;5.55;;
78555;SDS011;67851;51.354;7.744;2023-10-31T08:26:57;8.25;;;5.60;;
78555;SDS011;67851;51.354;7.744;2023-10-31T08:29:24;8.35;;;6.20;;
78555;SDS011;67851;51.354;7.744;2023-10-31T08:31:51;8.07;;;5.97;;
78555;SDS011;67851;51.354;7.744;2023-10-31T08:34:18;8.70;;;5.72;;
78555;SDS011;67851;51.354;7.744;2023-10-31T08:36:44;10.40;;;5.72;;
78555;SDS011;67851;51.354;7.744;2023-10-31T08:39:11;12.85;;;6.20;;
78555;SDS011;67851;51.354;7.744;2023-10-31T08:41:48;13.02;;;6.57;;
78555;SDS011;67851;51.354;7.744;2023-10-31T08:44:19;8.15;;;5.70;;
78555;SDS011;67851;51.354;7.744;2023-10-31T08:46:45;11.02;;;5.75;;
78555;SDS011;67851;51.354;7.744;2023-10-31T08:49:13;9.93;;;5.70;;
78555;SDS011;67851;51.354;7.744;2023-10-31T08:51:42;7.47;;;5.35;;
78555;SDS011;67851;51.354;7.744;2023-10-31T08:54:09;8.07;;;6.53;;
78555;SDS011;67851;51.354;7.744;2023-10-31T08:56:37;9.98;;;5.50;;
78555;SDS011;67851;51.354;7.744;2023-10-31T08:59:04;7.15;;;5.30;;
78555;SDS011;67851;51.354;7.744;2023-10-31T09:01:32;7.43;;;5.75;;
78555;SDS011;67851;51.354;7.744;2023-10-31T09:04:00;7.05;;;5.65;;
78555;SDS011;67851;51.354;7.744;2023-10-31T09:06:28;7.93;;;5.40;;
78555;SDS011;67851;51.354;7.744;2023-10-31T09:08:55;5.75;;;4.47;;
78555;SDS011;67851;51.354;7.744;2023-10-31T09:11:21;11.10;;;5.60;;
78555;SDS011;67851;51.354;7.744;2023-10-31T09:13:48;7.65;;;5.40;;
78555;SDS011;67851;51.354;7.744;2023-10-31T09:16:15;6.65;;;5.40;;
78555;SDS011;67851;51.354;7.744;2023-10-31T09:18:42;10.10;;;6.43;;
78555;SDS011;67851;51.354;7.744;2023-10-31T09:21:11;8.25;;;5.30;;
78555;SDS011;67851;51.354;7.744;2023-10-31T09:23:37;10.15;;;6.65;;
78555;SDS011;67851;51.354;7.744;2023-10-31T09:26:04;9.45;;;7.05;;
78555;SDS011;67851;51.354;7.744;2023-10-31T09:28:32;10.23;;;6.88;;
78555;SDS011;67851;51.354;7.744;2023-10-31T09:30:58;8.18;;;6.90;;
78555;SDS011;67851;51.354;7.744;2023-10-31T09:33:27;10.57;;;7.25;;
78555;SDS011;67851;51.354;7.744;2023-10-31T09:35:53;10.77;;;7.47;;
78555;SDS011;67851;51.354;7.744;2023-10-31T09:38:20;11.07;;;6.72;;
78555;SDS011;67851;51.354;7.744;2023-10-31T09:40:47;11.57;;;7.95;;
78555;SDS011;67851;51.354;7.744;2023-10-31T09:43:14;10.05;;;7.25;;
78555;SDS011;67851;51.354;7.744;2023-10-31T09:45:41;9.25;;;6.90;;
78555;SDS011;67851;51.354;7.744;2023-10-31T09:48:08;9.20;;;7.53;;
78555;SDS011;67851;51.354;7.744;2023-10-31T09:50:35;7.57;;;6.82;;
78555;SDS011;67851;51.354;7.744;2023-10-31T09:53:02;9.35;;;7.15;;
78555;SDS011;67851;51.354;7.744;2023-10-31T09:55:31;9.63;;;6.78;;
78555;SDS011;67851;51.354;7.744;2023-10-31T09:57:58;8.90;;;6.10;;
78555;SDS011;67851;51.354;7.744;2023-10-31T10:00:25;9.48;;;6.18;;
78555;SDS011;67851;51.354;7.744;2023-10-31T10:02:51;9.82;;;6.30;;
78555;SDS011;67851;51.354;7.744;2023-10-31T10:05:19;12.80;;;7.43;;
78555;SDS011;67851;51.354;7.744;2023-10-31T10:07:46;7.80;;;6.32;;
78555;SDS011;67851;51.354;7.744;2023-10-31T10:10:13;9.25;;;6.15;;
78555;SDS011;67851;51.354;7.744;2023-10-31T10:12:42;9.57;;;7.35;;
78555;SDS011;67851;51.354;7.744;2023-10-31T10:15:10;10.40;;;7.45;;
78555;SDS011;67851;51.354;7.744;2023-10-31T10:17:38;11.77;;;6.35;;
78555;SDS011;67851;51.354;7.744;2023-10-31T10:20:06;9.85;;;6.68;;
78555;SDS011;67851;51.354;7.744;2023-10-31T10:22:37;10.48;;;6.70;;
78555;SDS011;67851;51.354;7.744;2023-10-31T10:25:06;10.75;;;6.85;;
78555;SDS011;67851;51.354;7.744;2023-10-31T10:27:33;9.98;;;6.50;;
78555;SDS011;67851;51.354;7.744;2023-10-31T10:30:00;13.68;;;7.00;;
78555;SDS011;67851;51.354;7.744;2023-10-31T10:32:27;8.10;;;6.82;;
78555;SDS011;67851;51.354;7.744;2023-10-31T10:34:54;10.18;;;6.32;;
78555;SDS011;67851;51.354;7.744;2023-10-31T10:37:21;13.10;;;6.80;;
78555;SDS011;67851;51.354;7.744;2023-10-31T10:39:49;9.77;;;7.20;;
78555;SDS011;67851;51.354;7.744;2023-10-31T10:42:19;9.98;;;6.25;;
78555;SDS011;67851;51.354;7.744;2023-10-31T10:44:54;9.45;;;6.10;;
78555;SDS011;67851;51.354;7.744;2023-10-31T10:47:24;7.68;;;5.25;;
78555;SDS011;67851;51.354;7.744;2023-10-31T10:49:52;8.07;;;6.65;;
78555;SDS011;67851;51.354;7.744;2023-10-31T10:52:28;12.52;;;6.38;;
78555;SDS011;67851;51.354;7.744;2023-10-31T10:55:12;9.20;;;6.10;;
78555;SDS011;67851;51.354;7.744;2023-10-31T11:00:15;15.32;;;7.00;;
78555;SDS011;67851;51.354;7.744;2023-10-31T11:02:42;9.85;;;6.30;;
78555;SDS011;67851;51.354;7.744;2023-10-31T11:05:10;11.10;;;6.45;;
78555;SDS011;67851;51.354;7.744;2023-10-31T11:07:36;14.07;;;7.32;;
78555;SDS011;67851;51.354;7.744;2023-10-31T11:10:04;13.70;;;6.80;;
78555;SDS011;67851;51.354;7.744;2023-10-31T11:12:34;9.45;;;5.60;;
78555;SDS011;67851;51.354;7.744;2023-10-31T11:17:31;11.32;;;5.47;;
78555;SDS011;67851;51.354;7.744;2023-10-31T11:20:00;8.93;;;5.43;;
78555;SDS011;67851;51.354;7.744;2023-10-31T11:22:40;13.18;;;5.35;;
78555;SDS011;67851;51.354;7.744;2023-10-31T11:25:10;11.57;;;5.38;;
78555;SDS011;67851;51.354;7.744;2023-10-31T11:27:51;12.13;;;5.60;;
78555;SDS011;67851;51.354;7.744;2023-10-31T11:32:54;8.18;;;5.18;;
78555;SDS011;67851;51.354;7.744;2023-10-31T11:35:21;14.05;;;5.05;;
78555;SDS011;67851;51.354;7.744;2023-10-31T11:38:00;11.27;;;5.80;;
78555;SDS011;67851;51.354;7.744;2023-10-31T11:40:33;11.57;;;6.45;;
78555;SDS011;67851;51.354;7.744;2023-10-31T11:43:04;10.45;;;5.72;;
78555;SDS011;67851;51.354;7.744;2023-10-31T11:45:35;8.95;;;5.35;;
78555;SDS011;67851;51.354;7.744;2023-10-31T11:48:04;11.50;;;5.65;;
78555;SDS011;67851;51.354;7.744;2023-10-31T11:50:31;11.43;;;5.70;;
78555;SDS011;67851;51.354;7.744;2023-10-31T11:53:03;11.73;;;4.82;;
78555;SDS011;67851;51.354;7.744;2023-10-31T11:55:33;9.30;;;4.82;;
78555;SDS011;67851;51.354;7.744;2023-10-31T12:00:53;12.15;;;4.75;;
78555;SDS011;67851;51.354;7.744;2023-10-31T12:03:35;8.75;;;4.70;;
78555;SDS011;67851;51.354;7.744;2023-10-31T12:06:08;9.65;;;4.28;;
78555;SDS011;67851;51.354;7.744;2023-10-31T12:08:37;12.48;;;4.40;;
78555;SDS011;67851;51.354;7.744;2023-10-31T12:13:35;11.65;;;4.45;;
78555;SDS011;67851;51.354;7.744;2023-10-31T12:16:04;7.20;;;4.13;;
78555;SDS011;67851;51.354;7.744;2023-10-31T12:18:36;7.07;;;4.65;;
78555;SDS011;67851;51.354;7.744;2023-10-31T12:23:33;9.55;;;5.00;;
78555;SDS011;67851;51.354;7.744;2023-10-31T12:26:00;14.05;;;4.60;;
78555;SDS011;67851;51.354;7.744;2023-10-31T12:28:26;14.77;;;4.85;;
78555;SDS011;67851;51.354;7.744;2023-10-31T12:30:54;10.85;;;4.75;;
78555;SDS011;67851;51.354;7.744;2023-10-31T12:33:22;9.52;;;4.30;;
78555;SDS011;67851;51.354;7.744;2023-10-31T12:35:57;11.35;;;4.82;;
78555;SDS011;67851;51.354;7.744;2023-10-31T12:38:25;9.40;;;4.18;;
78555;SDS011;67851;51.354;7.744;2023-10-31T12:40:52;13.75;;;4.13;;
78555;SDS011;67851;51.354;7.744;2023-10-31T12:43:19;9.35;;;3.20;;
78555;SDS011;67851;51.354;7.744;2023-10-31T12:45:46;10.90;;;3.42;;
78555;SDS011;67851;51.354;7.744;2023-10-31T12:48:13;10.60;;;3.50;;
78555;SDS011;67851;51.354;7.744;2023-10-31T12:50:40;7.00;;;3.33;;
78555;SDS011;67851;51.354;7.744;2023-10-31T12:53:07;14.38;;;3.17;;
78555;SDS011;67851;51.354;7.744;2023-10-31T12:55:38;11.43;;;3.67;;
78555;SDS011;67851;51.354;7.744;2023-10-31T13:00:33;13.98;;;3.75;;
78555;SDS011;67851;51.354;7.744;2023-10-31T13:03:07;11.85;;;3.50;;
78555;SDS011;67851;51.354;7.744;2023-10-31T13:05:35;8.30;;;3.25;;
78555;SDS011;67851;51.354;7.744;2023-10-31T13:08:02;10.27;;;3.67;;
78555;SDS011;67851;51.354;7.744;2023-10-31T13:10:32;9.73;;;3.22;;
78555;SDS011;67851;51.354;7.744;2023-10-31T13:12:59;7.88;;;3.20;;
78555;SDS011;67851;51.354;7.744;2023-10-31T13:15:26;13.27;;;3.63;;
78555;SDS011;67851;51.354;7.744;2023-10-31T13:17:53;7.93;;;3.30;;
78555;SDS011;67851;51.354;7.744;2023-10-31T13:20:21;11.02;;;3.67;;
78555;SDS011;67851;51.354;7.744;2023-10-31T13:22:48;10.13;;;3.00;;
78555;SDS011;67851;51.354;7.744;2023-10-31T13:25:16;8.15;;;3.35;;
78555;SDS011;67851;51.354;7.744;2023-10-31T13:27:43;6.53;;;2.60;;
78555;SDS011;67851;51.354;7.744;2023-10-31T13:30:11;7.10;;;3.20;;
78555;SDS011;67851;51.354;7.744;2023-10-31T13:32:38;7.00;;;2.95;;
78555;SDS011;67851;51.354;7.744;2023-10-31T13:35:05;7.28;;;2.80;;
78555;SDS011;67851;51.354;7.744;2023-10-31T13:37:36;6.10;;;2.55;;
78555;SDS011;67851;51.354;7.744;2023-10-31T13:40:03;6.22;;;2.70;;
78555;SDS011;67851;51.354;7.744;2023-10-31T13:42:31;6.57;;;2.72;;
78555;SDS011;67851;51.354;7.744;2023-10-31T13:44:58;7.28;;;2.40;;
78555;SDS011;67851;51.354;7.744;2023-10-31T13:47:25;5.55;;;2.45;;
78555;SDS011;67851;51.354;7.744;2023-10-31T13:49:52;5.78;;;2.50;;
78555;SDS011;67851;51.354;7.744;2023-10-31T13:52:18;5.45;;;2.22;;
78555;SDS011;67851;51.354;7.744;2023-10-31T13:54:45;3.60;;;2.20;;
78555;SDS011;67851;51.354;7.744;2023-10-31T13:57:13;8.07;;;2.22;;
78555;SDS011;67851;51.354;7.744;2023-10-31T13:59:40;4.70;;;2.08;;
78555;SDS011;67851;51.354;7.744;2023-10-31T14:02:09;6.70;;;2.03;;
78555;SDS011;67851;51.354;7.744;2023-10-31T14:04:37;5.50;;;3.00;;
78555;SDS011;67851;51.354;7.744;2023-10-31T14:07:04;6.35;;;2.42;;
78555;SDS011;67851;51.354;7.744;2023-10-31T14:09:30;7.85;;;2.30;;
78555;SDS011;67851;51.354;7.744;2023-10-31T14:11:57;5.78;;;2.45;;
78555;SDS011;67851;51.354;7.744;2023-10-31T14:14:24;4.95;;;2.00;;
78555;SDS011;67851;51.354;7.744;2023-10-31T14:16:51;3.60;;;1.92;;
78555;SDS011;67851;51.354;7.744;2023-10-31T14:19:18;4.10;;;1.90;;
78555;SDS011;67851;51.354;7.744;2023-10-31T14:21:45;3.63;;;2.20;;
78555;SDS011;67851;51.354;7.744;2023-10-31T14:24:11;4.47;;;2.15;;
78555;SDS011;67851;51.354;7.744;2023-10-31T14:26:39;8.13;;;2.25;;
78555;SDS011;67851;51.354;7.744;2023-10-31T14:29:09;6.55;;;2.00;;
78555;SDS011;67851;51.354;7.744;2023-10-31T14:31:40;4.15;;;1.90;;
78555;SDS011;67851;51.354;7.744;2023-10-31T14:34:09;4.72;;;1.70;;
78555;SDS011;67851;51.354;7.744;2023-10-31T14:36:36;7.93;;;2.15;;
78555;SDS011;67851;51.354;7.744;2023-10-31T14:39:03;3.28;;;2.00;;
78555;SDS011;67851;51.354;7.744;2023-10-31T14:41:31;4.95;;;2.13;;
78555;SDS011;67851;51.354;7.744;2023-10-31T14:44:00;7.50;;;2.42;;
78555;SDS011;67851;51.354;7.744;2023-10-31T14:46:29;5.95;;;2.20;;
78555;SDS011;67851;51.354;7.744;2023-10-31T14:48:55;7.97;;;2.03;;
78555;SDS011;67851;51.354;7.744;2023-10-31T14:51:22;5.65;;;1.88;;
78555;SDS011;67851;51.354;7.744;2023-10-31T14:53:49;6.63;;;2.00;;
78555;SDS011;67851;51.354;7.744;2023-10-31T14:56:16;6.55;;;2.42;;
78555;SDS011;67851;51.354;7.744;2023-10-31T14:58:43;4.63;;;2.50;;
78555;SDS011;67851;51.354;7.744;2023-10-31T15:01:10;6.38;;;2.40;;
78555;SDS011;67851;51.354;7.744;2023-10-31T15:03:37;5.95;;;2.28;;